createdAt,value
2022-12-31T00:00:37.341Z,987.71
2022-12-31T00:01:37.315Z,987.69
2022-12-31T00:02:37.903Z,987.65
2022-12-31T00:03:37.385Z,987.67
2022-12-31T00:04:37.288Z,987.66
2022-12-31T00:05:37.275Z,987.65
2022-12-31T00:06:37.893Z,987.61
2022-12-31T00:08:09.041Z,987.62
2022-12-31T00:09:10.039Z,987.66
2022-12-31T00:10:10.029Z,987.65
2022-12-31T00:11:10.022Z,987.63
2022-12-31T00:12:10.021Z,987.64
2022-12-31T00:13:10.007Z,987.66
2022-12-31T00:14:09.984Z,987.66
2022-12-31T00:15:09.980Z,987.66
2022-12-31T00:16:12.313Z,987.71
2022-12-31T00:17:10.008Z,987.74
2022-12-31T00:18:09.957Z,987.76
2022-12-31T00:19:09.944Z,987.83
2022-12-31T00:20:09.937Z,987.87
2022-12-31T00:21:09.943Z,987.84
2022-12-31T00:22:09.910Z,987.88
2022-12-31T00:23:10.326Z,987.86
2022-12-31T00:24:09.890Z,987.90
2022-12-31T00:25:09.895Z,987.92
2022-12-31T00:26:09.877Z,987.91
2022-12-31T00:27:09.871Z,987.91
2022-12-31T00:28:09.851Z,987.90
2022-12-31T00:29:09.859Z,987.89
2022-12-31T00:30:09.844Z,987.90
2022-12-31T00:31:09.866Z,987.90
2022-12-31T00:32:09.832Z,987.94
2022-12-31T00:33:09.809Z,987.97
2022-12-31T00:34:09.792Z,987.96
2022-12-31T00:35:09.794Z,987.92
2022-12-31T00:36:10.036Z,987.85
2022-12-31T00:37:10.237Z,987.84
2022-12-31T00:38:09.763Z,987.82
2022-12-31T00:39:09.758Z,987.83
2022-12-31T00:40:09.744Z,987.82
2022-12-31T00:41:09.748Z,987.80
2022-12-31T00:42:10.284Z,987.79
2022-12-31T00:43:09.731Z,987.77
2022-12-31T00:44:09.715Z,987.71
2022-12-31T00:45:09.702Z,987.75
2022-12-31T00:46:09.707Z,987.72
2022-12-31T00:47:09.686Z,987.73
2022-12-31T00:48:09.672Z,987.72
2022-12-31T00:49:10.491Z,987.67
2022-12-31T00:50:09.671Z,987.67
2022-12-31T00:51:09.644Z,987.66
2022-12-31T00:52:09.630Z,987.69
2022-12-31T00:53:09.627Z,987.68
2022-12-31T00:54:09.626Z,987.73
2022-12-31T00:55:09.607Z,987.72
2022-12-31T00:56:09.592Z,987.72
2022-12-31T00:57:09.588Z,987.70
2022-12-31T00:58:09.578Z,987.73
2022-12-31T00:59:09.567Z,987.76
2022-12-31T01:00:09.568Z,987.80
2022-12-31T01:01:09.684Z,987.74
2022-12-31T01:02:09.746Z,987.75
2022-12-31T01:03:10.010Z,987.77
2022-12-31T01:04:09.519Z,987.75
2022-12-31T01:05:09.520Z,987.80
2022-12-31T01:06:09.522Z,987.80
2022-12-31T01:07:09.495Z,987.83
2022-12-31T01:08:09.489Z,987.86
2022-12-31T01:09:09.482Z,987.86
2022-12-31T01:10:09.461Z,987.81
2022-12-31T01:11:10.312Z,987.84
2022-12-31T01:12:09.441Z,987.82
2022-12-31T01:13:09.453Z,987.80
2022-12-31T01:14:09.421Z,987.78
2022-12-31T01:15:09.414Z,987.80
2022-12-31T01:16:09.499Z,987.76
2022-12-31T01:17:09.414Z,987.81
2022-12-31T01:18:09.391Z,987.88
2022-12-31T01:19:09.366Z,987.86
2022-12-31T01:20:09.371Z,987.89
2022-12-31T01:21:09.356Z,987.87
2022-12-31T01:22:09.361Z,987.86
2022-12-31T01:23:09.743Z,987.78
2022-12-31T01:24:09.337Z,987.84
2022-12-31T01:25:09.715Z,987.78
2022-12-31T01:26:09.319Z,987.79
2022-12-31T01:27:09.306Z,987.77
2022-12-31T01:28:09.297Z,987.80
2022-12-31T01:29:10.002Z,987.82
2022-12-31T01:30:09.282Z,987.82
2022-12-31T01:31:09.322Z,987.79
2022-12-31T01:32:09.267Z,987.78
2022-12-31T01:33:09.238Z,987.81
2022-12-31T01:34:09.243Z,987.79
2022-12-31T01:35:09.258Z,987.80
2022-12-31T01:36:09.226Z,987.76
2022-12-31T01:37:09.200Z,987.78
2022-12-31T01:38:09.199Z,987.80
2022-12-31T01:39:09.211Z,987.81
2022-12-31T01:40:09.988Z,987.86
2022-12-31T01:41:09.172Z,987.86
2022-12-31T01:42:09.167Z,987.91
2022-12-31T01:43:09.154Z,987.88
2022-12-31T01:44:09.159Z,987.87
2022-12-31T01:45:09.137Z,987.85
2022-12-31T01:46:09.143Z,987.85
2022-12-31T01:47:09.126Z,987.85
2022-12-31T01:48:09.119Z,987.86
2022-12-31T01:49:09.104Z,987.77
2022-12-31T01:50:09.121Z,987.78
2022-12-31T01:51:09.086Z,987.82
2022-12-31T01:52:09.081Z,987.83
2022-12-31T01:53:09.065Z,987.81
2022-12-31T01:54:09.066Z,987.77
2022-12-31T01:55:09.055Z,987.71
2022-12-31T01:56:09.056Z,987.69
2022-12-31T01:57:09.054Z,987.70
2022-12-31T01:58:09.052Z,987.66
2022-12-31T01:59:09.030Z,987.62
2022-12-31T02:00:09.015Z,987.61
2022-12-31T02:01:09.013Z,987.71
2022-12-31T02:02:09.052Z,987.75
2022-12-31T02:03:09.027Z,987.72
2022-12-31T02:04:08.982Z,987.74
2022-12-31T02:05:08.978Z,987.73
2022-12-31T02:06:08.968Z,987.71
2022-12-31T02:07:08.950Z,987.73
2022-12-31T02:08:08.947Z,987.73
2022-12-31T02:09:08.935Z,987.71
2022-12-31T02:10:09.596Z,987.69
2022-12-31T02:11:08.911Z,987.66
2022-12-31T02:12:08.946Z,987.66
2022-12-31T02:13:08.898Z,987.68
2022-12-31T02:14:08.899Z,987.68
2022-12-31T02:15:08.883Z,987.65
2022-12-31T02:16:08.924Z,987.66
2022-12-31T02:17:08.870Z,987.63
2022-12-31T02:18:08.857Z,987.60
2022-12-31T02:19:08.851Z,987.55
2022-12-31T02:20:08.841Z,987.62
2022-12-31T02:21:08.830Z,987.61
2022-12-31T02:22:09.293Z,987.63
2022-12-31T02:23:08.805Z,987.64
2022-12-31T02:24:08.812Z,987.63
2022-12-31T02:25:08.816Z,987.65
2022-12-31T02:26:08.793Z,987.64
2022-12-31T02:27:08.773Z,987.63
2022-12-31T02:28:08.802Z,987.61
2022-12-31T02:29:08.762Z,987.68
2022-12-31T02:30:08.757Z,987.65
2022-12-31T02:31:08.787Z,987.60
2022-12-31T02:32:08.735Z,987.61
2022-12-31T02:33:08.765Z,987.56
2022-12-31T02:34:08.721Z,987.54
2022-12-31T02:35:08.718Z,987.48
2022-12-31T02:36:08.703Z,987.50
2022-12-31T02:37:08.696Z,987.46
2022-12-31T02:38:08.714Z,987.46
2022-12-31T02:39:08.677Z,987.41
2022-12-31T02:40:08.670Z,987.38
2022-12-31T02:41:08.669Z,987.33
2022-12-31T02:42:08.651Z,987.33
2022-12-31T02:43:08.645Z,987.20
2022-12-31T02:44:08.644Z,987.23
2022-12-31T02:45:08.619Z,987.19
2022-12-31T02:46:08.657Z,987.25
2022-12-31T02:47:08.626Z,987.25
2022-12-31T02:48:08.602Z,987.16
2022-12-31T02:49:08.583Z,987.19
2022-12-31T02:50:08.581Z,987.21
2022-12-31T02:51:08.569Z,987.19
2022-12-31T02:52:08.572Z,987.13
2022-12-31T02:53:08.548Z,987.09
2022-12-31T02:54:08.541Z,987.14
2022-12-31T02:55:08.550Z,987.12
2022-12-31T02:56:08.538Z,987.20
2022-12-31T02:57:08.521Z,987.20
2022-12-31T02:58:08.511Z,987.21
2022-12-31T02:59:08.522Z,987.24
2022-12-31T03:00:08.489Z,987.25
2022-12-31T03:01:08.596Z,987.28
2022-12-31T03:02:08.610Z,987.33
2022-12-31T03:03:08.472Z,987.36
2022-12-31T03:04:08.465Z,987.20
2022-12-31T03:05:08.441Z,987.31
2022-12-31T03:06:08.450Z,987.30
2022-12-31T03:07:08.426Z,987.25
2022-12-31T03:08:08.432Z,987.27
2022-12-31T03:09:08.408Z,987.24
2022-12-31T03:10:08.418Z,987.26
2022-12-31T03:11:08.395Z,987.21
2022-12-31T03:12:08.391Z,987.16
2022-12-31T03:13:08.377Z,987.24
2022-12-31T03:14:08.381Z,987.18
2022-12-31T03:15:08.360Z,987.24
2022-12-31T03:16:08.814Z,987.12
2022-12-31T03:17:08.341Z,987.20
2022-12-31T03:18:08.366Z,987.22
2022-12-31T03:19:08.328Z,987.18
2022-12-31T03:20:08.320Z,987.20
2022-12-31T03:21:09.113Z,987.21
2022-12-31T03:22:08.302Z,987.21
2022-12-31T03:23:08.292Z,987.21
2022-12-31T03:24:08.294Z,987.24
2022-12-31T03:25:08.269Z,987.28
2022-12-31T03:26:08.278Z,987.21
2022-12-31T03:27:08.257Z,987.27
2022-12-31T03:28:08.276Z,987.37
2022-12-31T03:29:08.237Z,987.32
2022-12-31T03:30:08.240Z,987.35
2022-12-31T03:31:08.283Z,987.30
2022-12-31T03:32:08.231Z,987.25
2022-12-31T03:33:08.803Z,987.33
2022-12-31T03:34:08.216Z,987.35
2022-12-31T03:35:08.191Z,987.36
2022-12-31T03:36:08.184Z,987.41
2022-12-31T03:37:08.168Z,987.37
2022-12-31T03:38:08.197Z,987.32
2022-12-31T03:39:08.317Z,987.36
2022-12-31T03:40:08.148Z,987.34
2022-12-31T03:41:08.142Z,987.42
2022-12-31T03:42:08.137Z,987.39
2022-12-31T03:43:08.133Z,987.36
2022-12-31T03:44:08.116Z,987.31
2022-12-31T03:45:08.104Z,987.36
2022-12-31T03:46:08.139Z,987.34
2022-12-31T03:47:08.086Z,987.33
2022-12-31T03:48:08.093Z,987.23
2022-12-31T03:49:08.071Z,987.23
2022-12-31T03:50:08.197Z,987.25
2022-12-31T03:51:08.062Z,987.24
2022-12-31T03:52:08.053Z,987.28
2022-12-31T03:53:08.033Z,987.31
2022-12-31T03:54:08.039Z,987.28
2022-12-31T03:55:08.027Z,987.25
2022-12-31T03:56:08.020Z,987.25
2022-12-31T03:57:08.008Z,987.24
2022-12-31T03:58:07.999Z,987.21
2022-12-31T03:59:08.003Z,987.25
2022-12-31T04:00:07.979Z,987.24
2022-12-31T04:01:08.079Z,987.09
2022-12-31T04:02:08.080Z,987.24
2022-12-31T04:03:07.976Z,987.22
2022-12-31T04:04:07.959Z,987.28
2022-12-31T04:05:07.933Z,987.22
2022-12-31T04:06:07.933Z,987.23
2022-12-31T04:07:07.924Z,987.24
2022-12-31T04:08:07.915Z,987.19
2022-12-31T04:09:07.909Z,987.28
2022-12-31T04:10:07.925Z,987.27
2022-12-31T04:11:07.882Z,987.37
2022-12-31T04:12:07.878Z,987.31
2022-12-31T04:13:07.922Z,987.32
2022-12-31T04:14:07.870Z,987.29
2022-12-31T04:15:07.847Z,987.33
2022-12-31T04:16:08.283Z,987.30
2022-12-31T04:17:07.844Z,987.27
2022-12-31T04:18:07.838Z,987.25
2022-12-31T04:19:07.807Z,987.26
2022-12-31T04:20:07.819Z,987.28
2022-12-31T04:21:07.801Z,987.36
2022-12-31T04:22:07.787Z,987.33
2022-12-31T04:23:07.807Z,987.27
2022-12-31T04:24:08.302Z,987.29
2022-12-31T04:25:07.756Z,987.28
2022-12-31T04:26:07.777Z,987.29
2022-12-31T04:27:08.216Z,987.19
2022-12-31T04:28:07.736Z,987.27
2022-12-31T04:29:08.086Z,987.22
2022-12-31T04:30:08.236Z,987.24
2022-12-31T04:31:07.699Z,987.22
2022-12-31T04:32:07.743Z,987.25
2022-12-31T04:33:07.693Z,987.20
2022-12-31T04:34:07.707Z,987.25
2022-12-31T04:35:07.706Z,987.26
2022-12-31T04:36:07.688Z,987.32
2022-12-31T04:37:07.652Z,987.23
2022-12-31T04:38:07.656Z,987.41
2022-12-31T04:39:07.648Z,987.32
2022-12-31T04:40:07.627Z,987.32
2022-12-31T04:41:07.644Z,987.30
2022-12-31T04:42:08.490Z,987.31
2022-12-31T04:43:07.592Z,987.30
2022-12-31T04:44:07.593Z,987.30
2022-12-31T04:45:07.585Z,987.26
2022-12-31T04:46:07.599Z,987.28
2022-12-31T04:47:07.552Z,987.30
2022-12-31T04:48:07.555Z,987.35
2022-12-31T04:49:07.542Z,987.38
2022-12-31T04:50:07.575Z,987.37
2022-12-31T04:51:07.516Z,987.36
2022-12-31T04:52:07.520Z,987.36
2022-12-31T04:53:07.502Z,987.39
2022-12-31T04:54:07.497Z,987.25
2022-12-31T04:55:07.485Z,987.34
2022-12-31T04:56:07.477Z,987.31
2022-12-31T04:57:07.469Z,987.21
2022-12-31T04:58:07.453Z,987.28
2022-12-31T04:59:07.534Z,987.29
2022-12-31T05:00:07.449Z,987.36
2022-12-31T05:01:07.644Z,987.36
2022-12-31T05:02:07.643Z,987.35
2022-12-31T05:03:07.476Z,987.43
2022-12-31T05:04:07.392Z,987.44
2022-12-31T05:05:07.383Z,987.45
2022-12-31T05:06:07.384Z,987.43
2022-12-31T05:07:07.370Z,987.44
2022-12-31T05:08:07.368Z,987.43
2022-12-31T05:09:07.340Z,987.37
2022-12-31T05:10:07.343Z,987.37
2022-12-31T05:11:07.327Z,987.44
2022-12-31T05:12:07.318Z,987.41
2022-12-31T05:13:07.764Z,987.38
2022-12-31T05:14:07.328Z,987.42
2022-12-31T05:15:07.307Z,987.37
2022-12-31T05:16:07.285Z,987.36
2022-12-31T05:17:07.267Z,987.50
2022-12-31T05:18:07.260Z,987.48
2022-12-31T05:19:07.665Z,987.46
2022-12-31T05:20:07.245Z,987.47
2022-12-31T05:21:07.227Z,987.54
2022-12-31T05:22:07.217Z,987.55
2022-12-31T05:23:07.202Z,987.59
2022-12-31T05:24:07.625Z,987.50
2022-12-31T05:25:07.194Z,987.59
2022-12-31T05:26:07.182Z,987.63
2022-12-31T05:27:07.166Z,987.59
2022-12-31T05:28:07.161Z,987.65
2022-12-31T05:29:07.154Z,987.60
2022-12-31T05:30:07.146Z,987.68
2022-12-31T05:31:07.226Z,987.56
2022-12-31T05:32:07.127Z,987.50
2022-12-31T05:33:07.120Z,987.48
2022-12-31T05:34:07.121Z,987.57
2022-12-31T05:35:07.103Z,987.36
2022-12-31T05:36:07.856Z,987.51
2022-12-31T05:37:07.095Z,987.60
2022-12-31T05:38:07.069Z,987.55
2022-12-31T05:39:07.068Z,987.59
2022-12-31T05:40:07.052Z,987.65
2022-12-31T05:41:07.077Z,987.73
2022-12-31T05:42:07.039Z,987.65
2022-12-31T05:43:07.024Z,987.72
2022-12-31T05:44:07.015Z,987.64
2022-12-31T05:45:07.393Z,987.70
2022-12-31T05:46:07.005Z,987.68
2022-12-31T05:47:06.992Z,987.69
2022-12-31T05:48:06.981Z,987.71
2022-12-31T05:49:06.993Z,987.80
2022-12-31T05:50:07.765Z,987.81
2022-12-31T05:51:06.947Z,987.80
2022-12-31T05:52:06.939Z,987.76
2022-12-31T05:53:06.931Z,987.82
2022-12-31T05:54:06.937Z,987.79
2022-12-31T05:55:06.919Z,987.76
2022-12-31T05:56:06.910Z,987.84
2022-12-31T05:57:06.891Z,987.81
2022-12-31T05:58:06.870Z,987.85
2022-12-31T05:59:06.869Z,987.87
2022-12-31T06:00:06.863Z,987.91
2022-12-31T06:01:06.870Z,987.93
2022-12-31T06:02:06.841Z,987.91
2022-12-31T06:03:06.888Z,987.91
2022-12-31T06:04:07.191Z,987.96
2022-12-31T06:05:06.815Z,987.89
2022-12-31T06:06:06.805Z,987.83
2022-12-31T06:07:06.802Z,987.87
2022-12-31T06:08:06.783Z,987.86
2022-12-31T06:09:06.778Z,987.92
2022-12-31T06:10:06.781Z,987.96
2022-12-31T06:11:06.756Z,987.84
2022-12-31T06:12:07.012Z,987.89
2022-12-31T06:13:06.760Z,987.90
2022-12-31T06:14:06.740Z,987.88
2022-12-31T06:15:06.746Z,987.93
2022-12-31T06:16:06.779Z,988.00
2022-12-31T06:17:06.699Z,987.91
2022-12-31T06:18:06.694Z,987.84
2022-12-31T06:19:06.683Z,987.83
2022-12-31T06:20:12.741Z,987.90
2022-12-31T06:21:06.680Z,987.95
2022-12-31T06:22:06.650Z,987.91
2022-12-31T06:23:06.662Z,987.93
2022-12-31T06:24:06.631Z,987.97
2022-12-31T06:25:06.629Z,988.03
2022-12-31T06:26:06.628Z,988.02
2022-12-31T06:27:06.616Z,988.04
2022-12-31T06:28:06.592Z,988.10
2022-12-31T06:29:06.607Z,987.97
2022-12-31T06:30:06.588Z,987.92
2022-12-31T06:31:06.652Z,987.97
2022-12-31T06:32:06.572Z,987.97
2022-12-31T06:33:06.565Z,988.01
2022-12-31T06:34:06.544Z,987.97
2022-12-31T06:35:06.543Z,987.94
2022-12-31T06:36:06.525Z,987.91
2022-12-31T06:37:06.557Z,987.90
2022-12-31T06:38:06.503Z,987.97
2022-12-31T06:39:06.499Z,987.92
2022-12-31T06:40:06.507Z,987.89
2022-12-31T06:41:06.479Z,987.94
2022-12-31T06:42:06.465Z,987.97
2022-12-31T06:43:06.458Z,988.03
2022-12-31T06:44:06.440Z,988.02
2022-12-31T06:45:06.448Z,988.03
2022-12-31T06:46:06.490Z,987.98
2022-12-31T06:47:06.415Z,988.00
2022-12-31T06:48:06.397Z,987.95
2022-12-31T06:49:06.401Z,987.94
2022-12-31T06:50:06.382Z,988.07
2022-12-31T06:51:08.566Z,988.09
2022-12-31T06:52:06.358Z,988.19
2022-12-31T06:53:06.353Z,988.06
2022-12-31T06:54:06.343Z,988.05
2022-12-31T06:55:06.300Z,988.04
2022-12-31T06:56:06.274Z,988.11
2022-12-31T06:57:06.267Z,988.14
2022-12-31T06:58:06.245Z,988.11
2022-12-31T06:59:06.239Z,988.14
2022-12-31T07:00:06.227Z,988.17
2022-12-31T07:01:06.263Z,988.10
2022-12-31T07:02:06.303Z,988.09
2022-12-31T07:03:06.246Z,988.03
2022-12-31T07:04:06.179Z,988.16
2022-12-31T07:05:06.216Z,988.13
2022-12-31T07:06:06.162Z,988.16
2022-12-31T07:07:06.159Z,988.20
2022-12-31T07:08:06.142Z,988.12
2022-12-31T07:09:06.129Z,988.18
2022-12-31T07:10:06.119Z,988.19
2022-12-31T07:11:06.111Z,988.15
2022-12-31T07:12:06.537Z,988.15
2022-12-31T07:13:06.087Z,988.24
2022-12-31T07:14:06.073Z,988.18
2022-12-31T07:15:06.089Z,988.24
2022-12-31T07:16:06.069Z,988.24
2022-12-31T07:17:06.055Z,988.22
2022-12-31T07:18:06.029Z,988.29
2022-12-31T07:19:06.031Z,988.31
2022-12-31T07:20:06.009Z,988.33
2022-12-31T07:21:06.004Z,988.32
2022-12-31T07:22:06.367Z,988.39
2022-12-31T07:23:05.983Z,988.39
2022-12-31T07:24:05.979Z,988.39
2022-12-31T07:25:05.977Z,988.45
2022-12-31T07:26:05.949Z,988.49
2022-12-31T07:27:05.941Z,988.45
2022-12-31T07:28:05.941Z,988.45
2022-12-31T07:29:05.919Z,988.35
2022-12-31T07:30:05.907Z,988.44
2022-12-31T07:31:05.930Z,988.50
2022-12-31T07:32:05.884Z,988.46
2022-12-31T07:33:05.877Z,988.51
2022-12-31T07:34:05.862Z,988.46
2022-12-31T07:35:05.858Z,988.58
2022-12-31T07:36:05.843Z,988.59
2022-12-31T07:37:05.838Z,988.56
2022-12-31T07:38:05.819Z,988.56
2022-12-31T07:39:05.820Z,988.56
2022-12-31T07:40:05.812Z,988.51
2022-12-31T07:41:09.742Z,988.52
2022-12-31T07:42:05.779Z,988.63
2022-12-31T07:43:05.765Z,988.66
2022-12-31T07:44:05.752Z,988.70
2022-12-31T07:45:05.747Z,988.69
2022-12-31T07:46:05.789Z,988.69
2022-12-31T07:47:05.736Z,988.58
2022-12-31T07:48:05.725Z,988.64
2022-12-31T07:49:05.699Z,988.71
2022-12-31T07:50:06.596Z,988.71
2022-12-31T07:51:05.678Z,988.72
2022-12-31T07:52:05.691Z,988.78
2022-12-31T07:53:05.679Z,988.77
2022-12-31T07:54:11.823Z,988.81
2022-12-31T07:55:05.647Z,988.88
2022-12-31T07:56:05.629Z,988.86
2022-12-31T07:57:05.628Z,988.83
2022-12-31T07:58:05.629Z,988.83
2022-12-31T07:59:05.595Z,988.85
2022-12-31T08:00:05.588Z,988.80
2022-12-31T08:01:05.708Z,988.87
2022-12-31T08:02:05.665Z,988.87
2022-12-31T08:03:05.879Z,988.82
2022-12-31T08:04:05.550Z,988.89
2022-12-31T08:05:05.540Z,988.95
2022-12-31T08:06:05.522Z,989.02
2022-12-31T08:07:05.513Z,988.94
2022-12-31T08:08:05.498Z,989.00
2022-12-31T08:09:05.499Z,989.01
2022-12-31T08:10:05.477Z,989.02
2022-12-31T08:11:05.473Z,989.05
2022-12-31T08:12:05.452Z,988.97
2022-12-31T08:13:05.448Z,989.04
2022-12-31T08:14:05.428Z,989.04
2022-12-31T08:15:05.432Z,989.05
2022-12-31T08:16:05.428Z,988.97
2022-12-31T08:17:05.399Z,988.97
2022-12-31T08:18:05.385Z,988.99
2022-12-31T08:19:05.379Z,989.08
2022-12-31T08:20:05.361Z,989.09
2022-12-31T08:21:06.173Z,989.06
2022-12-31T08:22:05.345Z,989.05
2022-12-31T08:23:05.330Z,989.08
2022-12-31T08:24:05.325Z,989.10
2022-12-31T08:25:05.323Z,989.14
2022-12-31T08:26:05.807Z,989.23
2022-12-31T08:27:05.299Z,989.19
2022-12-31T08:28:05.279Z,989.21
2022-12-31T08:29:05.274Z,989.19
2022-12-31T08:30:05.355Z,989.11
2022-12-31T08:31:05.258Z,989.15
2022-12-31T08:32:05.234Z,989.16
2022-12-31T08:33:05.247Z,989.14
2022-12-31T08:34:06.242Z,989.11
2022-12-31T08:35:05.209Z,989.09
2022-12-31T08:36:05.205Z,989.13
2022-12-31T08:37:05.193Z,989.06
2022-12-31T08:38:05.166Z,989.05
2022-12-31T08:39:05.180Z,989.18
2022-12-31T08:40:05.153Z,989.14
2022-12-31T08:41:05.837Z,989.12
2022-12-31T08:42:05.123Z,989.20
2022-12-31T08:43:05.140Z,989.15
2022-12-31T08:44:05.126Z,989.16
2022-12-31T08:45:05.099Z,989.16
2022-12-31T08:46:05.118Z,989.19
2022-12-31T08:47:05.105Z,989.22
2022-12-31T08:48:05.063Z,989.13
2022-12-31T08:49:05.057Z,989.06
2022-12-31T08:50:05.849Z,989.13
2022-12-31T08:51:05.031Z,989.09
2022-12-31T08:52:05.022Z,989.04
2022-12-31T08:53:05.019Z,989.06
2022-12-31T08:54:04.997Z,989.04
2022-12-31T08:55:05.004Z,989.04
2022-12-31T08:56:04.976Z,989.11
2022-12-31T08:57:04.981Z,989.13
2022-12-31T08:58:04.972Z,989.03
2022-12-31T08:59:04.951Z,988.95
2022-12-31T09:00:04.938Z,989.02
2022-12-31T09:01:05.035Z,989.00
2022-12-31T09:02:05.030Z,989.10
2022-12-31T09:03:04.910Z,989.15
2022-12-31T09:04:04.915Z,989.14
2022-12-31T09:05:04.893Z,989.20
2022-12-31T09:06:04.887Z,989.23
2022-12-31T09:07:04.876Z,989.19
2022-12-31T09:08:04.860Z,989.17
2022-12-31T09:09:04.851Z,989.09
2022-12-31T09:10:05.337Z,989.15
2022-12-31T09:11:04.847Z,989.13
2022-12-31T09:12:04.815Z,989.21
2022-12-31T09:13:04.817Z,989.17
2022-12-31T09:14:04.806Z,989.18
2022-12-31T09:15:04.787Z,989.21
2022-12-31T09:16:04.894Z,989.24
2022-12-31T09:17:04.770Z,989.18
2022-12-31T09:18:04.756Z,989.23
2022-12-31T09:19:04.756Z,989.21
2022-12-31T09:20:04.743Z,989.18
2022-12-31T09:21:04.739Z,989.17
2022-12-31T09:22:04.714Z,989.14
2022-12-31T09:23:04.720Z,989.17
2022-12-31T09:24:09.316Z,989.17
2022-12-31T09:25:05.107Z,989.18
2022-12-31T09:26:04.680Z,989.26
2022-12-31T09:27:04.702Z,989.27
2022-12-31T09:28:04.655Z,989.26
2022-12-31T09:29:04.648Z,989.25
2022-12-31T09:30:04.641Z,989.25
2022-12-31T09:31:05.189Z,989.36
2022-12-31T09:32:04.665Z,989.34
2022-12-31T09:33:04.623Z,989.31
2022-12-31T09:34:04.595Z,989.33
2022-12-31T09:35:04.594Z,989.27
2022-12-31T09:36:04.576Z,989.36
2022-12-31T09:37:04.580Z,989.42
2022-12-31T09:38:11.098Z,989.44
2022-12-31T09:39:04.573Z,989.42
2022-12-31T09:40:04.542Z,989.40
2022-12-31T09:41:04.521Z,989.43
2022-12-31T09:42:04.519Z,989.39
2022-12-31T09:43:04.909Z,989.42
2022-12-31T09:44:04.509Z,989.32
2022-12-31T09:45:04.503Z,989.42
2022-12-31T09:46:04.518Z,989.53
2022-12-31T09:47:04.461Z,989.59
2022-12-31T09:48:04.460Z,989.58
2022-12-31T09:49:04.447Z,989.69
2022-12-31T09:50:04.440Z,989.65
2022-12-31T09:51:04.425Z,989.73
2022-12-31T09:52:04.428Z,989.68
2022-12-31T09:53:04.400Z,989.64
2022-12-31T09:54:04.403Z,989.66
2022-12-31T09:55:04.379Z,989.58
2022-12-31T09:56:04.374Z,989.60
2022-12-31T09:57:04.372Z,989.62
2022-12-31T09:58:04.353Z,989.68
2022-12-31T09:59:04.746Z,989.61
2022-12-31T10:00:04.335Z,989.88
2022-12-31T10:01:04.425Z,989.75
2022-12-31T10:02:04.488Z,989.79
2022-12-31T10:03:04.366Z,989.84
2022-12-31T10:04:04.296Z,989.71
2022-12-31T10:05:04.279Z,989.77
2022-12-31T10:06:04.299Z,989.74
2022-12-31T10:07:04.267Z,989.78
2022-12-31T10:08:04.240Z,989.78
2022-12-31T10:09:04.226Z,989.79
2022-12-31T10:10:04.223Z,989.73
2022-12-31T10:11:04.212Z,989.66
2022-12-31T10:12:04.201Z,989.68
2022-12-31T10:13:04.199Z,989.71
2022-12-31T10:14:04.191Z,989.77
2022-12-31T10:15:04.175Z,989.76
2022-12-31T10:16:04.159Z,989.71
2022-12-31T10:17:04.207Z,989.79
2022-12-31T10:18:04.148Z,989.75
2022-12-31T10:19:04.124Z,989.66
2022-12-31T10:20:04.116Z,989.80
2022-12-31T10:21:04.095Z,989.80
2022-12-31T10:22:04.110Z,989.79
2022-12-31T10:23:04.083Z,989.81
2022-12-31T10:24:04.072Z,989.79
2022-12-31T10:25:04.059Z,989.81
2022-12-31T10:26:04.040Z,989.82
2022-12-31T10:27:04.028Z,989.85
2022-12-31T10:28:04.014Z,989.88
2022-12-31T10:29:04.004Z,989.80
2022-12-31T10:30:04.010Z,989.86
2022-12-31T10:31:04.000Z,989.77
2022-12-31T10:32:03.965Z,989.73
2022-12-31T10:33:03.963Z,989.74
2022-12-31T10:34:03.942Z,989.78
2022-12-31T10:35:03.927Z,989.75
2022-12-31T10:36:03.921Z,989.77
2022-12-31T10:37:03.901Z,989.77
2022-12-31T10:38:03.915Z,989.80
2022-12-31T10:39:07.470Z,989.86
2022-12-31T10:40:03.885Z,989.92
2022-12-31T10:41:03.851Z,989.96
2022-12-31T10:42:04.647Z,990.02
2022-12-31T10:43:03.824Z,989.98
2022-12-31T10:44:03.816Z,990.00
2022-12-31T10:45:03.801Z,990.00
2022-12-31T10:46:03.828Z,989.97
2022-12-31T10:47:03.799Z,990.03
2022-12-31T10:48:03.775Z,990.09
2022-12-31T10:49:03.763Z,990.01
2022-12-31T10:50:03.756Z,990.06
2022-12-31T10:51:03.738Z,990.10
2022-12-31T10:52:03.724Z,990.12
2022-12-31T10:53:03.744Z,990.08
2022-12-31T10:54:03.713Z,990.04
2022-12-31T10:55:03.691Z,990.07
2022-12-31T10:56:03.689Z,989.99
2022-12-31T10:57:03.696Z,990.06
2022-12-31T10:58:04.717Z,990.15
2022-12-31T10:59:03.641Z,990.14
2022-12-31T11:00:03.662Z,990.15
2022-12-31T11:01:03.748Z,990.13
2022-12-31T11:02:03.832Z,990.14
2022-12-31T11:03:03.629Z,990.16
2022-12-31T11:04:03.975Z,990.19
2022-12-31T11:05:03.600Z,990.26
2022-12-31T11:06:03.568Z,990.27
2022-12-31T11:07:03.553Z,990.24
2022-12-31T11:08:03.556Z,990.23
2022-12-31T11:09:03.519Z,990.20
2022-12-31T11:10:03.524Z,990.22
2022-12-31T11:11:03.510Z,990.25
2022-12-31T11:12:03.507Z,990.17
2022-12-31T11:13:03.477Z,990.16
2022-12-31T11:14:03.477Z,990.09
2022-12-31T11:15:03.451Z,990.06
2022-12-31T11:16:03.484Z,990.10
2022-12-31T11:17:03.441Z,990.24
2022-12-31T11:18:03.422Z,990.23
2022-12-31T11:19:03.421Z,990.35
2022-12-31T11:20:03.400Z,990.34
2022-12-31T11:21:03.389Z,990.33
2022-12-31T11:22:03.380Z,990.29
2022-12-31T11:23:03.358Z,990.25
2022-12-31T11:24:03.350Z,990.30
2022-12-31T11:25:03.331Z,990.25
2022-12-31T11:26:03.332Z,990.23
2022-12-31T11:27:03.313Z,990.25
2022-12-31T11:28:03.336Z,990.17
2022-12-31T11:29:03.289Z,990.18
2022-12-31T11:30:03.286Z,990.16
2022-12-31T11:31:03.287Z,990.17
2022-12-31T11:32:04.076Z,990.17
2022-12-31T11:33:03.231Z,990.23
2022-12-31T11:34:03.241Z,990.12
2022-12-31T11:35:03.211Z,990.14
2022-12-31T11:36:03.195Z,990.13
2022-12-31T11:37:03.628Z,990.14
2022-12-31T11:38:03.211Z,990.06
2022-12-31T11:39:03.275Z,990.07
2022-12-31T11:40:03.145Z,989.96
2022-12-31T11:41:03.146Z,990.07
2022-12-31T11:42:03.130Z,990.02
2022-12-31T11:43:03.116Z,989.92
2022-12-31T11:44:03.160Z,990.10
2022-12-31T11:45:03.088Z,990.08
2022-12-31T11:46:03.553Z,990.09
2022-12-31T11:47:03.060Z,990.06
2022-12-31T11:48:33.183Z,990.09
2022-12-31T11:49:03.043Z,990.08
2022-12-31T11:50:03.035Z,990.04
2022-12-31T11:51:03.011Z,990.03
2022-12-31T11:52:03.017Z,990.09
2022-12-31T11:53:02.995Z,990.17
2022-12-31T11:54:02.984Z,990.10
2022-12-31T11:55:02.973Z,990.10
2022-12-31T11:56:02.994Z,990.13
2022-12-31T11:57:02.945Z,990.06
2022-12-31T11:58:02.932Z,990.05
2022-12-31T11:59:09.242Z,990.08
2022-12-31T12:00:02.928Z,989.99
2022-12-31T12:01:03.368Z,990.07
2022-12-31T12:02:02.890Z,990.02
2022-12-31T12:03:02.899Z,990.08
2022-12-31T12:04:02.916Z,990.07
2022-12-31T12:05:10.303Z,990.07
2022-12-31T12:06:02.885Z,989.89
2022-12-31T12:07:02.838Z,989.84
2022-12-31T12:08:02.815Z,989.97
2022-12-31T12:09:02.800Z,989.95
2022-12-31T12:10:02.821Z,989.95
2022-12-31T12:11:02.779Z,989.94
2022-12-31T12:12:02.818Z,989.89
2022-12-31T12:13:02.764Z,989.93
2022-12-31T12:14:03.365Z,989.85
2022-12-31T12:15:02.738Z,989.93
2022-12-31T12:16:02.780Z,989.80
2022-12-31T12:17:05.419Z,989.88
2022-12-31T12:18:02.707Z,989.98
2022-12-31T12:19:02.708Z,989.94
2022-12-31T12:20:02.677Z,990.02
2022-12-31T12:21:02.667Z,990.03
2022-12-31T12:22:02.662Z,989.99
2022-12-31T12:23:02.651Z,990.02
2022-12-31T12:24:03.055Z,989.99
2022-12-31T12:25:02.625Z,989.94
2022-12-31T12:26:02.606Z,989.94
2022-12-31T12:27:02.611Z,989.99
2022-12-31T12:28:02.612Z,990.03
2022-12-31T12:29:02.571Z,990.05